Station: Double Island Point  

  Atmospheric Gas Attenuation - ITU Rec 676-11   ----------------- dB/100km -----------------
Date Time Temp RH % AH g/m3 Dew Point Wind Direction Speed kph Gust kph Barometer mB Rainfall Since 9am 24GHz 47GHz 76GHz 122GHz 134GHz 241GHz
08/05 12:30 18.5 53 8.38 8.7 33 43 1018.1 0 18.9 24.4 36.9 96.7 90.3 310.7
08/05 12:20 18.7 53 8.48 8.9 30 35 1018.2 0 19.1 24.5 37.2 97.5 91.3 314.3
08/05 12:10 18.7 51 8.16 8.4 35 43 1018.5 0 18.4 24.0 36.0 94.3 87.4 300.6
08/05 12:00 18.8 52 8.37 8.7 33 48 1018.7 0 18.9 24.3 36.8 96.3 89.9 309.3
08/05 11:50 18.7 51 8.16 8.4 33 39 1018.8 0 18.4 24.1 36.0 94.4 87.4 300.7
08/05 11:40 18.8 53 8.53 9 30 35 1018.8 0 19.2 24.6 37.4 97.9 91.9 316.2
08/05 11:30 18.8 54 8.7 9.3 37 46 1018.9 0 19.6 24.8 38.0 99.6 94.0 323.6
08/05 11:20 18.6 50 7.96 8 33 39 1018.9 0 18.0 23.8 35.3 92.5 85.1 292.5
08/05 11:10 18.6 51 8.12 8.3 32 35 1019.1 0 18.3 24.0 35.9 94.1 87.1 299.4
08/05 11:00 18.6 51 8.12 8.3 37 48 1019.2 0 18.3 24.0 35.9 94.1 87.1 299.4
08/05 10:50 18.5 50 7.91 7.9 35 41 1019.3 0 17.9 23.7 35.2 92.2 84.7 290.9
08/05 10:40 18.4 51 8.02 8.1 32 35 1019.4 0 18.1 23.9 35.7 93.4 86.1 296.0
08/05 10:30 18.4 51 8.02 8.1 39 52 1019.4 0 18.1 23.9 35.7 93.4 86.1 296.0
08/05 10:20 18.3 52 8.13 8.3 37 44 1019.5 0 18.4 24.1 36.1 94.6 87.6 301.1
08/05 10:10 18 49 7.53 7.1 33 44 1019.6 0 17.1 23.3 34.0 89.0 80.6 276.6
08/05 10:00 17.9 49 7.48 7 37 48 1019.7 0 17.0 23.3 33.9 88.7 80.1 274.9
08/05 09:50 17.4 50 7.41 6.9 37 41 1019.7 0 16.9 23.3 33.9 88.5 79.8 273.6
08/05 09:40 17.1 50 7.28 6.6 41 46 1019.7 0 16.6 23.2 33.5 87.6 78.5 269.1
08/05 09:30 17 50 7.23 6.5 35 46 1019.7 0 16.5 23.1 33.4 87.2 78.0 267.3
08/05 09:20 17.1 53 7.71 7.5 33 43 1019.7 0 17.5 23.8 35.1 91.8 83.7 287.5
08/05 09:10 16.8 51 7.29 6.6 37 44 1019.6 0 16.7 23.3 33.7 88.0 78.9 270.5
08/05 09:00 16.9 51 7.33 6.7 35 50 1019.5 0 16.7 23.3 33.8 88.3 79.3 271.8
08/05 08:50 16.8 51 7.29 6.6 33 41 1019.6 0 16.7 23.3 33.7 88.0 78.9 270.5
08/05 08:40 16.7 52 7.39 6.8 35 44 1019.6 0 16.9 23.4 34.1 89.1 80.2 275.1
08/05 08:30 16.6 50 7.06 6.1 35 46 1019.6 0 16.2 23.0 32.9 86.0 76.3 261.4
08/05 08:20 16.5 52 7.3 6.6 37 44 1019.6 0 16.7 23.4 33.8 88.4 79.3 271.9
08/05 08:10 16.4 49 6.84 5.7 41 48 1019.6 0 15.7 22.7 32.2 84.0 73.9 252.8
08/05 08:00 16.5 52 7.3 6.6 33 44 1019.3 0 16.7 23.4 33.8 88.4 79.3 271.9
08/05 07:50 16.3 50 6.94 5.9 35 44 1019.2 0 15.9 22.9 32.6 85.1 75.1 257.2
08/05 07:40 16.3 52 7.21 6.4 32 41 1019.3 0 16.5 23.3 33.6 87.7 78.4 268.7
08/05 07:30 15.7 52 6.96 5.9 26 39 1019.2 0 16.0 23.0 32.9 85.9 75.9 260.0
08/05 07:20 15.5 51 6.74 5.4 26 33 1019.1 0 15.6 22.8 32.1 84.0 73.5 251.2
08/05 07:10 15.5 52 6.87 5.7 28 32 1019.1 0 15.8 23.0 32.6 85.2 75.0 256.8
08/05 07:00 15.1 53 6.84 5.6 26 35 1018.9 0 15.8 23.0 32.7 85.3 75.0 256.7
08/05 06:50 14.5 48 5.97 3.6 22 30 1018.8 0 14.0 21.9 29.7 77.5 65.1 221.7
08/05 06:40 14.5 48 5.97 3.6 26 30 1018.7 0 14.0 21.9 29.7 77.4 65.1 221.7
08/05 06:30 14.3 44 5.41 2.2 28 32 1018.8 0 12.8 21.1 27.8 72.3 58.7 199.1
08/05 06:20 14.3 43 5.28 1.9 26 30 1018.7 0 12.5 20.9 27.3 71.1 57.1 193.8
08/05 06:10 14.4 43 5.32 2 30 33 1018.5 0 12.6 20.9 27.4 71.4 57.5 195.2
08/05 06:00 14.5 41 5.1 1.4 28 37 1018.3 0 12.1 20.6 26.6 69.2 54.9 186.0
08/05 05:50 14.6 42 5.26 1.8 32 35 1018.1 0 12.5 20.8 27.2 70.6 56.7 192.2
08/05 05:40 14.5 42 5.22 1.8 30 32 1018 0 12.4 20.8 27.0 70.3 56.3 190.8
08/05 05:30 14.6 41 5.13 1.5 28 35 1018 0 12.2 20.6 26.7 69.4 55.2 186.9
08/05 05:20 14.6 41 5.13 1.5 26 32 1017.9 0 12.2 20.6 26.7 69.4 55.2 186.9
08/05 05:10 14.6 41 5.13 1.5 24 26 1017.8 0 12.2 20.6 26.7 69.4 55.2 186.9
08/05 05:00 14.7 40 5.04 1.3 22 28 1017.6 0 12.0 20.5 26.3 68.4 54.1 183.0
08/05 04:50 14.8 40 5.07 1.3 17 22 1017.4 0 12.1 20.5 26.4 68.6 54.3 184.0
08/05 04:40 15 40 5.13 1.5 24 30 1017.2 0 12.2 20.5 26.5 69.0 54.9 185.9
08/05 04:30 15.1 40 5.16 1.6 28 35 1017.1 0 12.2 20.5 26.6 69.2 55.1 186.8
08/05 04:20 15.1 42 5.42 2.3 26 30 1017.2 0 12.8 20.9 27.5 71.6 58.1 197.3
08/05 04:10 15 43 5.51 2.5 28 35 1016.9 0 13.0 21.0 27.8 72.5 59.2 201.2
08/05 04:00 15.1 46 5.93 3.6 24 32 1016.8 0 13.9 21.6 29.3 76.3 64.0 218.1
08/05 03:50 15.3 48 6.27 4.4 22 28 1016.7 0 14.6 22.0 30.4 79.4 67.9 231.6
08/05 03:40 15.4 49 6.44 4.8 20 24 1016.5 0 14.9 22.3 31.0 80.9 69.8 238.4
08/05 03:30 15.2 49 6.36 4.6 19 26 1016.4 0 14.8 22.2 30.8 80.3 69.0 235.6
08/05 03:20 15.4 50 6.57 5 22 24 1016.5 0 15.2 22.4 31.5 82.2 71.3 243.8
08/05 03:10 15.5 49 6.48 4.8 24 28 1016.5 0 15.0 22.3 31.1 81.2 70.2 239.7
08/05 03:00 15.7 49 6.56 5 24 30 1016.6 0 15.2 22.4 31.3 81.8 71.0 242.5
08/05 02:50 16 47 6.4 4.7 22 24 1016.8 0 14.8 22.1 30.6 79.9 68.8 235.0
08/05 02:40 16.2 46 6.34 4.6 30 35 1016.6 0 14.7 21.9 30.3 79.2 67.9 231.9
08/05 02:30 16.3 45 6.24 4.4 30 37 1016.6 0 14.5 21.8 29.9 78.1 66.7 227.5
08/05 02:20 16.7 44 6.25 4.4 26 32 1016.9 0 14.5 21.7 29.8 77.9 66.5 226.9
08/05 02:10 16.9 44 6.33 4.6 26 32 1017 0 14.6 21.8 30.1 78.4 67.2 229.6
08/05 02:00 16.9 43 6.18 4.3 26 35 1017.2 0 14.3 21.6 29.5 77.0 65.5 223.5
08/05 01:50 17.1 44 6.4 4.8 28 33 1017 0 14.8 21.8 30.2 78.9 67.9 231.9
08/05 01:40 17.2 42 6.15 4.2 32 37 1017 0 14.2 21.4 29.3 76.4 64.9 221.4
08/05 01:30 17.5 41 6.11 4.1 28 39 1017.1 0 14.2 21.3 29.1 75.8 64.2 219.0
08/05 01:20 17.5 43 6.41 4.8 26 32 1017.1 0 14.8 21.7 30.1 78.6 67.7 231.2
08/05 01:10 17.5 43 6.41 4.8 26 32 1017.1 0 14.8 21.7 30.1 78.6 67.7 231.2
08/05 01:00 17.6 43 6.45 4.9 28 39 1017.1 0 14.9 21.8 30.2 78.9 68.0 232.5
08/05 00:50 17.5 43 6.41 4.8 28 30 1017 0 14.8 21.7 30.1 78.6 67.7 231.2
08/05 00:40 17.9 42 6.41 4.8 30 41 1017.1 0 14.8 21.6 30.0 78.2 67.3 230.0
08/05 00:30 17.8 42 6.37 4.7 26 35 1017.1 0 14.7 21.6 29.9 77.9 67.0 228.7
08/05 00:20 18.2 40 6.22 4.4 32 37 1017 0 14.4 21.3 29.2 76.2 64.9 221.5
08/05 00:10 18.1 43 6.64 5.3 22 28 1017 0 15.2 21.9 30.7 80.2 69.8 238.8
08/05 00:00 18.6 42 6.68 5.5 24 32 1016.9 0 15.3 21.9 30.7 80.0 69.8 238.9
07/05 23:50 18.7 42 6.72 5.5 19 22 1016.9 0 15.4 21.9 30.8 80.3 70.2 240.3
07/05 23:40 18.7 42 6.72 5.5 22 24 1017 0 15.4 21.9 30.8 80.3 70.2 240.3
07/05 23:30 18.9 43 6.97 6.1 19 26 1016.9 0 15.9 22.2 31.6 82.5 72.9 249.8
07/05 23:20 19 45 7.33 6.8 17 22 1016.8 0 16.7 22.7 32.8 85.8 77.0 264.3
07/05 23:10 19.1 44 7.21 6.6 24 26 1016.8 0 16.4 22.5 32.3 84.5 75.5 259.0
07/05 23:00 19.4 45 7.51 7.2 22 28 1016.9 0 17.0 22.8 33.3 87.1 78.8 270.4
07/05 22:50 19.9 43 7.39 7 26 30 1016.8 0 16.8 22.5 32.7 85.4 76.9 263.8
07/05 22:40 20.2 43 7.52 7.2 24 28 1016.9 0 17.0 22.7 33.0 86.3 78.1 268.2
07/05 22:30 20.4 43 7.61 7.4 28 33 1016.9 0 17.2 22.7 33.2 87.0 79.0 271.2
07/05 22:20 20.3 44 7.74 7.7 24 26 1016.9 0 17.5 23.0 33.7 88.3 80.6 276.9
07/05 22:10 20.4 47 8.31 8.7 22 26 1016.8 0 18.7 23.8 35.7 93.7 87.2 300.2
07/05 22:00 20.4 48 8.49 9 24 30 1016.8 0 19.0 24.0 36.4 95.4 89.4 307.8
07/05 21:50 20.7 47 8.46 9 20 22 1016.8 0 19.0 23.9 36.2 94.8 88.7 305.4
07/05 21:40 20.8 46 8.33 8.8 22 24 1016.8 0 18.7 23.7 35.6 93.4 87.0 299.6
07/05 21:30 21 46 8.43 8.9 24 28 1016.6 0 18.9 23.8 35.9 94.1 88.0 302.9
07/05 21:20 21.1 46 8.47 9 22 28 1016.8 0 19.0 23.8 36.0 94.4 88.4 304.3
07/05 21:10 21.7 41 7.82 7.9 30 33 1016.7 0 17.6 22.7 33.4 87.5 80.1 275.3
07/05 21:00 21.6 43 8.15 8.5 28 35 1016.7 0 18.3 23.2 34.6 90.7 84.1 289.2
07/05 20:50 21.5 48 9.05 10 24 28 1016.7 0 20.2 24.6 37.9 99.6 94.9 327.1
07/05 20:40 21.3 54 10.06 11.6 22 24 1016.7 0 22.3 26.1 41.8 109.9 107.6 371.6
07/05 20:30 21.2 58 10.75 12.6 22 24 1016.5 0 23.8 27.3 44.6 117.2 116.5 402.8
07/05 20:20 21.2 65 12.04 14.4 19 20 1016.4 0 26.5 29.3 49.7 131.0 133.5 462.0
07/05 20:10 21.1 68 12.53 15 20 24 1016.4 0 27.5 30.2 51.8 136.5 140.3 485.8
07/05 20:00 21.3 72 13.42 16 22 26 1016.3 0 29.4 31.6 55.4 146.1 152.2 527.4

Last Refresh: 08-May-2026 12:08:03

Bureau of Meteorology